Time;durP1;ratioP1;P1;durP2;ratioP2;P2;SDS_P1;SDS_P2;PMS_P1;PMS_P2;Temp;Humidity;BMP_temperature;BMP_pressure;BME280_temperature;BME280_humidity;BME280_pressure;Samples;Min_cycle;Max_cycle;Signal;HPM_P1;HPM_P2
2023/03/13 00:00:54;;;;;;;18.65;3.92;;;;;;;10.94;75.20;100127.59;4978527;28;20424;-66
2023/03/13 00:03:20;;;;;;;19.02;3.55;;;;;;;11.12;74.96;100115.13;4991049;28;20077;-66
2023/03/13 00:05:45;;;;;;;13.73;3.28;;;;;;;11.07;75.28;100116.94;4970923;28;20038;-66
2023/03/13 00:08:11;;;;;;;17.67;4.65;;;;;;;11.09;74.93;100112.63;4978465;28;20037;-66
2023/03/13 00:10:40;;;;;;;18.45;4.03;;;;;;;11.13;74.69;100103.88;4974343;28;20031;-66
2023/03/13 00:13:07;;;;;;;16.08;3.85;;;;;;;11.07;74.66;100110.94;4975360;28;20634;-66
2023/03/13 00:15:33;;;;;;;16.38;3.33;;;;;;;11.05;75.57;100099.75;4974917;28;20031;-66
2023/03/13 00:17:58;;;;;;;15.63;3.33;;;;;;;11.05;75.23;100094.59;4986964;28;20048;-66
2023/03/13 00:20:24;;;;;;;17.83;3.40;;;;;;;11.09;74.84;100089.34;4996112;28;20121;-67
2023/03/13 00:22:49;;;;;;;13.77;2.67;;;;;;;11.05;75.45;100089.41;4988678;28;20061;-66
2023/03/13 00:25:14;;;;;;;17.02;3.03;;;;;;;11.01;74.98;100074.88;5003881;28;20034;-66
2023/03/13 00:27:40;;;;;;;14.32;3.65;;;;;;;10.95;75.30;100085.34;5006490;28;20035;-67
2023/03/13 00:30:06;;;;;;;18.85;4.25;;;;;;;10.87;76.01;100076.88;4996426;28;20738;-67
2023/03/13 00:32:31;;;;;;;16.05;2.95;;;;;;;10.86;75.96;100067.44;5001934;28;20018;-68
2023/03/13 00:34:56;;;;;;;11.48;3.47;;;;;;;10.90;75.59;100058.72;4990792;28;20073;-67
2023/03/13 00:37:22;;;;;;;19.80;3.58;;;;;;;10.89;75.98;100042.34;4990831;28;20356;-66
2023/03/13 00:39:47;;;;;;;18.48;3.40;;;;;;;10.96;76.42;100036.16;4993272;28;20153;-66
2023/03/13 00:42:13;;;;;;;15.15;3.88;;;;;;;11.01;75.65;100017.97;4995295;28;20042;-66
2023/03/13 00:44:38;;;;;;;19.23;4.25;;;;;;;11.01;76.27;100031.72;5005695;28;20038;-65
2023/03/13 00:47:05;;;;;;;15.38;3.30;;;;;;;10.97;77.36;100032.72;5001866;28;20045;-66
2023/03/13 00:49:31;;;;;;;18.77;3.92;;;;;;;10.84;79.58;100022.63;5000007;28;20034;-68
2023/03/13 00:51:56;;;;;;;19.42;4.03;;;;;;;10.72;80.59;100024.59;4987771;28;20041;-66
2023/03/13 00:54:22;;;;;;;18.40;4.10;;;;;;;10.58;82.86;100012.84;4998667;28;20867;-66
2023/03/13 00:56:47;;;;;;;21.52;3.75;;;;;;;10.53;83.03;100004.34;4991649;28;20030;-66
2023/03/13 00:59:13;;;;;;;14.20;3.67;;;;;;;10.44;84.50;100001.94;5000680;28;20479;-66
2023/03/13 01:01:38;;;;;;;20.95;3.53;;;;;;;10.55;84.12;100010.34;4998448;28;20057;-66
2023/03/13 01:04:06;;;;;;;17.90;3.70;;;;;;;10.45;85.31;99994.16;4986906;28;20824;-66
2023/03/13 01:06:34;;;;;;;15.98;3.35;;;;;;;10.41;85.11;99987.38;4995416;28;20448;-66
2023/03/13 01:09:01;;;;;;;19.17;3.70;;;;;;;10.40;85.91;99987.38;4996764;28;20041;-66
2023/03/13 01:11:29;;;;;;;20.48;3.88;;;;;;;10.40;85.68;99985.66;5005500;28;20043;-66
2023/03/13 01:13:56;;;;;;;17.35;3.70;;;;;;;10.46;85.73;99972.63;4994084;28;20050;-66
2023/03/13 01:16:23;;;;;;;17.15;3.63;;;;;;;10.36;86.68;99976.25;5004668;28;20091;-66
2023/03/13 01:18:51;;;;;;;18.02;3.40;;;;;;;10.43;85.84;99967.50;4978825;28;20099;-66
2023/03/13 01:21:20;;;;;;;22.88;3.55;;;;;;;10.53;85.71;99963.00;4987743;28;20036;-67
2023/03/13 01:23:47;;;;;;;18.75;4.28;;;;;;;10.47;85.61;99970.88;4993455;28;20069;-66
2023/03/13 01:26:12;;;;;;;15.13;3.83;;;;;;;10.49;85.26;99961.38;4996781;28;20026;-66
2023/03/13 01:28:38;;;;;;;16.30;3.72;;;;;;;10.56;85.32;99960.38;4994801;28;20824;-65
2023/03/13 01:31:23;;;;;;;13.48;3.08;;;;;;;10.66;85.13;99948.94;5011506;28;20048;-66
2023/03/13 01:33:52;;;;;;;16.50;3.28;;;;;;;10.65;84.85;99953.25;5011639;28;20033;-67
2023/03/13 01:36:18;;;;;;;16.52;3.08;;;;;;;10.65;85.18;99955.81;4999523;28;20041;-66
2023/03/13 01:38:47;;;;;;;13.75;2.90;;;;;;;10.69;85.37;99949.72;4999900;28;20858;-66
2023/03/13 01:41:13;;;;;;;9.98;2.92;;;;;;;10.73;85.15;99938.44;4996529;28;20075;-66
2023/03/13 01:43:38;;;;;;;18.02;2.70;;;;;;;10.81;84.61;99943.44;4995239;28;20037;-65
2023/03/13 01:46:08;;;;;;;14.73;2.88;;;;;;;10.93;83.54;99931.94;5003765;28;20034;-66
2023/03/13 01:48:43;;;;;;;12.50;2.47;;;;;;;10.91;83.81;99921.66;4998768;28;20592;-67
2023/03/13 01:51:36;;;;;;;20.75;2.85;;;;;;;10.99;83.55;99918.88;4988177;28;20121;-67
2023/03/13 01:54:13;;;;;;;10.50;3.50;;;;;;;11.02;82.78;99911.91;5004989;28;20921;-67
2023/03/13 01:56:55;;;;;;;11.35;2.65;;;;;;;11.03;82.43;99910.19;5004612;28;20022;-65
2023/03/13 01:59:26;;;;;;;17.70;3.40;;;;;;;11.05;82.86;99895.47;4996539;28;20064;-67
2023/03/13 02:01:56;;;;;;;12.40;2.33;;;;;;;11.09;82.85;99903.13;5002836;28;20589;-66
2023/03/13 02:04:22;;;;;;;9.20;2.40;;;;;;;11.11;82.95;99887.56;5001737;28;20033;-67
2023/03/13 02:06:51;;;;;;;10.82;2.42;;;;;;;11.04;82.79;99891.19;4992750;28;20099;-66
2023/03/13 02:09:21;;;;;;;15.32;2.95;;;;;;;11.08;83.17;99879.88;4999822;28;20034;-66
2023/03/13 02:11:51;;;;;;;6.10;2.55;;;;;;;11.14;82.70;99872.81;5013494;28;20033;-65
2023/03/13 02:14:20;;;;;;;7.97;2.08;;;;;;;11.08;83.02;99870.38;5009410;28;20143;-66
2023/03/13 02:16:47;;;;;;;9.77;1.95;;;;;;;11.05;83.02;99857.53;5013421;28;20066;-67
2023/03/13 02:19:44;;;;;;;7.32;2.10;;;;;;;11.15;82.76;99852.97;4999442;28;20042;-67
2023/03/13 02:22:35;;;;;;;8.38;2.15;;;;;;;11.13;82.46;99846.97;4996621;28;20499;-67
2023/03/13 02:25:23;;;;;;;8.95;1.92;;;;;;;11.24;82.37;99838.09;4993879;28;20158;-67
2023/03/13 02:27:56;;;;;;;7.72;1.50;;;;;;;11.18;82.71;99840.81;4997546;28;20100;-67
2023/03/13 02:30:22;;;;;;;12.98;2.05;;;;;;;11.13;83.34;99828.88;5004197;28;20037;-66
2023/03/13 02:32:48;;;;;;;10.25;2.38;;;;;;;11.05;84.14;99836.84;5006829;28;20800;-66
2023/03/13 02:35:17;;;;;;;9.00;1.83;;;;;;;11.00;85.42;99832.69;4998041;28;20029;-66
2023/03/13 02:37:47;;;;;;;12.25;1.58;;;;;;;10.97;85.34;99825.00;4990506;28;20041;-66
2023/03/13 02:40:17;;;;;;;14.50;2.30;;;;;;;11.02;86.23;99815.38;4996361;28;20749;-66
2023/03/13 02:42:44;;;;;;;8.75;1.80;;;;;;;10.93;87.97;99811.28;4999715;28;20099;-66
2023/03/13 02:45:13;;;;;;;5.03;1.38;;;;;;;10.90;89.33;99805.34;4996703;28;20038;-65
2023/03/13 02:47:39;;;;;;;6.85;1.42;;;;;;;10.84;90.33;99806.34;5000095;28;20032;-65
2023/03/13 02:50:05;;;;;;;6.75;1.50;;;;;;;10.76;91.39;99803.97;4997374;28;20042;-65
2023/03/13 02:52:59;;;;;;;5.38;1.33;;;;;;;10.76;92.17;99793.63;4990285;28;20040;-65
2023/03/13 02:55:38;;;;;;;4.38;1.23;;;;;;;10.71;92.36;99787.69;4999853;28;20041;-67
2023/03/13 02:58:03;;;;;;;5.95;1.83;;;;;;;10.70;92.23;99792.91;4993026;28;20046;-65
2023/03/13 03:00:29;;;;;;;4.35;1.50;;;;;;;10.61;92.71;99791.41;5007316;28;20046;-66
2023/03/13 03:02:55;;;;;;;5.25;1.52;;;;;;;10.60;93.42;99787.13;5000168;28;20093;-65
2023/03/13 03:05:21;;;;;;;5.00;1.50;;;;;;;10.55;93.44;99788.97;5001782;28;20565;-65
2023/03/13 03:07:47;;;;;;;9.13;1.40;;;;;;;10.52;93.97;99795.94;4997310;28;20041;-66
2023/03/13 03:10:13;;;;;;;5.95;1.30;;;;;;;10.50;94.08;99795.13;5001727;28;20037;-66
2023/03/13 03:12:38;;;;;;;4.40;1.20;;;;;;;10.54;93.74;99789.84;4990612;28;20052;-65
2023/03/13 03:15:04;;;;;;;7.55;1.20;;;;;;;10.56;93.77;99775.19;4999510;28;20053;-65
2023/03/13 03:17:29;;;;;;;8.32;1.40;;;;;;;10.56;93.38;99769.16;4995023;28;20030;-66
2023/03/13 03:19:55;;;;;;;1.73;0.70;;;;;;;10.62;92.98;99754.31;5009294;28;20465;-66
2023/03/13 03:22:21;;;;;;;4.43;0.85;;;;;;;10.66;93.23;99763.72;4997735;28;20037;-66
2023/03/13 03:24:46;;;;;;;2.58;0.98;;;;;;;10.64;92.48;99768.06;5004616;28;20153;-65
2023/03/13 03:27:12;;;;;;;1.73;0.80;;;;;;;10.67;93.13;99761.97;4998471;28;20041;-65
2023/03/13 03:29:37;;;;;;;2.88;0.90;;;;;;;10.75;92.08;99747.97;4998565;28;20034;-65
2023/03/13 03:32:03;;;;;;;2.05;0.70;;;;;;;10.77;92.11;99746.19;5001504;28;20038;-65
2023/03/13 03:34:28;;;;;;;3.78;0.90;;;;;;;10.74;92.36;99753.19;4997941;28;20085;-65
2023/03/13 03:36:54;;;;;;;1.88;0.70;;;;;;;10.72;92.21;99758.38;4997676;28;20053;-67
2023/03/13 03:39:19;;;;;;;2.50;0.80;;;;;;;10.77;91.20;99768.63;5009144;28;20394;-67
2023/03/13 03:41:44;;;;;;;2.28;0.98;;;;;;;10.74;91.86;99766.94;4995253;28;20034;-65
2023/03/13 03:44:10;;;;;;;1.73;0.80;;;;;;;10.77;91.99;99764.28;4998205;28;20153;-66
2023/03/13 03:46:35;;;;;;;1.15;0.68;;;;;;;10.86;91.46;99767.53;4997044;28;20078;-66
2023/03/13 03:49:00;;;;;;;3.05;0.70;;;;;;;10.90;91.19;99762.25;4997653;28;20430;-66
2023/03/13 03:51:26;;;;;;;1.63;0.60;;;;;;;10.85;90.99;99761.53;4994038;28;20529;-67
2023/03/13 03:53:52;;;;;;;3.22;0.82;;;;;;;10.84;91.47;99764.13;4994950;28;20030;-67
2023/03/13 03:56:17;;;;;;;2.83;0.70;;;;;;;10.84;92.12;99754.66;4991467;28;20046;-67
2023/03/13 03:58:43;;;;;;;2.67;0.80;;;;;;;10.83;91.21;99746.94;5006310;28;20044;-67
2023/03/13 04:01:08;;;;;;;1.90;0.65;;;;;;;10.95;91.47;99736.28;4998906;28;20034;-67
2023/03/13 04:03:33;;;;;;;3.22;0.63;;;;;;;10.94;91.33;99743.19;4994909;28;20065;-66
2023/03/13 04:05:59;;;;;;;3.15;0.70;;;;;;;10.97;91.95;99748.28;4993875;28;20545;-66
2023/03/13 04:08:24;;;;;;;2.50;0.70;;;;;;;10.94;91.50;99743.19;5004152;28;20033;-67
2023/03/13 04:10:50;;;;;;;1.25;0.47;;;;;;;11.03;90.93;99732.59;4995267;28;20046;-63
2023/03/13 04:13:16;;;;;;;0.88;0.50;;;;;;;11.02;91.69;99714.53;4995927;28;20497;-63
2023/03/13 04:15:41;;;;;;;1.35;0.50;;;;;;;11.04;91.34;99711.00;4991557;28;20311;-63
2023/03/13 04:18:07;;;;;;;2.67;0.55;;;;;;;11.21;90.28;99705.41;4996818;28;20033;-63
2023/03/13 04:20:33;;;;;;;0.75;0.40;;;;;;;11.25;90.47;99712.16;4999233;28;20034;-63
2023/03/13 04:22:58;;;;;;;4.32;0.50;;;;;;;11.23;90.22;99709.63;4998465;28;21475;-63
2023/03/13 04:25:24;;;;;;;1.48;0.40;;;;;;;11.17;90.39;99707.22;5007847;28;20042;-63
2023/03/13 04:27:49;;;;;;;2.35;1.38;;;;;;;11.18;91.17;99702.91;4996220;28;20104;-63
2023/03/13 04:30:15;;;;;;;2.08;0.60;;;;;;;11.21;90.62;99701.06;4994379;28;20081;-63
2023/03/13 04:32:40;;;;;;;3.50;0.68;;;;;;;11.17;91.61;99699.44;4996807;28;20029;-63
2023/03/13 04:35:06;;;;;;;2.30;0.50;;;;;;;11.13;91.86;99689.22;4993984;28;20035;-63
2023/03/13 04:37:31;;;;;;;0.80;0.55;;;;;;;11.11;92.03;99684.09;4995947;28;20188;-63
2023/03/13 04:39:57;;;;;;;1.55;0.70;;;;;;;11.11;91.99;99683.25;4996684;28;20686;-63
2023/03/13 04:42:22;;;;;;;1.77;0.50;;;;;;;11.14;92.53;99681.44;4996194;28;20565;-64
2023/03/13 04:44:48;;;;;;;1.45;0.60;;;;;;;11.14;92.76;99686.59;5006338;28;20033;-63
2023/03/13 04:47:13;;;;;;;0.63;0.50;;;;;;;11.16;92.60;99695.16;5000146;28;20037;-63
2023/03/13 04:49:38;;;;;;;0.73;0.40;;;;;;;11.14;92.79;99702.13;4997222;28;20042;-65
2023/03/13 04:52:04;;;;;;;0.40;0.40;;;;;;;11.14;93.07;99707.28;4993749;28;20041;-63
2023/03/13 04:54:30;;;;;;;0.30;0.30;;;;;;;11.17;93.02;99691.69;4991717;28;20041;-63
2023/03/13 04:56:55;;;;;;;2.50;0.45;;;;;;;11.22;92.85;99692.41;4997382;28;20030;-63
2023/03/13 04:59:20;;;;;;;0.57;0.40;;;;;;;11.27;92.34;99674.19;4995318;28;20033;-64
2023/03/13 05:01:46;;;;;;;0.60;0.40;;;;;;;11.41;92.51;99677.22;4995056;28;20037;-63
2023/03/13 05:04:11;;;;;;;0.47;0.30;;;;;;;11.57;91.71;99678.50;4998299;28;20096;-63
2023/03/13 05:06:37;;;;;;;2.13;0.43;;;;;;;11.65;91.62;99661.00;4990515;28;20053;-64
2023/03/13 05:09:03;;;;;;;0.60;0.50;;;;;;;11.83;90.93;99651.81;4999475;28;20056;-63
2023/03/13 05:11:29;;;;;;;0.30;0.28;;;;;;;11.84;90.58;99650.94;4997433;28;20105;-63
2023/03/13 05:13:54;;;;;;;0.73;0.38;;;;;;;11.90;89.83;99648.97;4996000;28;20048;-63
2023/03/13 05:16:20;;;;;;;0.30;0.30;;;;;;;11.90;89.73;99648.97;4996937;28;20034;-63
2023/03/13 05:18:45;;;;;;;2.20;0.40;;;;;;;11.90;90.16;99651.56;4994345;28;20048;-64
2023/03/13 05:21:11;;;;;;;0.82;0.50;;;;;;;11.97;89.78;99649.63;4989462;28;20034;-64
2023/03/13 05:23:36;;;;;;;0.30;0.30;;;;;;;12.04;89.18;99658.06;4997680;28;20033;-63
2023/03/13 05:26:01;;;;;;;0.30;0.30;;;;;;;12.00;89.89;99661.63;4996573;28;20025;-64
2023/03/13 05:28:27;;;;;;;0.95;0.30;;;;;;;12.03;89.88;99653.78;4992197;28;20041;-64
2023/03/13 05:30:52;;;;;;;0.40;0.40;;;;;;;12.11;89.94;99657.81;5010468;28;20725;-64
2023/03/13 05:33:18;;;;;;;0.50;0.40;;;;;;;12.17;89.89;99649.84;4988220;28;20038;-64
2023/03/13 05:35:44;;;;;;;0.40;0.30;;;;;;;12.24;89.44;99643.56;4992667;28;20423;-63
2023/03/13 05:38:10;;;;;;;0.60;0.40;;;;;;;12.28;89.27;99639.13;4988503;28;20052;-64
2023/03/13 05:40:36;;;;;;;0.50;0.40;;;;;;;12.38;88.78;99643.09;4990581;28;20038;-64
2023/03/13 05:43:01;;;;;;;1.75;0.50;;;;;;;12.36;88.83;99643.16;4990350;28;20038;-63
2023/03/13 05:45:27;;;;;;;0.40;0.38;;;;;;;12.45;88.40;99640.25;4990994;28;20081;-64
2023/03/13 05:47:52;;;;;;;1.10;0.60;;;;;;;12.44;88.61;99642.88;4995520;28;20116;-64
2023/03/13 05:50:17;;;;;;;0.40;0.40;;;;;;;12.44;88.51;99635.13;4984591;28;20792;-64
2023/03/13 05:52:43;;;;;;;0.90;0.40;;;;;;;12.58;87.92;99637.25;4991359;28;20058;-63
2023/03/13 05:55:08;;;;;;;2.08;0.60;;;;;;;12.57;87.72;99639.00;4997213;28;20064;-63
2023/03/13 05:57:34;;;;;;;0.88;0.52;;;;;;;12.56;88.11;99631.25;4990690;28;20042;-64
2023/03/13 05:59:59;;;;;;;1.00;0.47;;;;;;;12.63;87.56;99619.78;4995476;28;20128;-63
2023/03/13 06:02:25;;;;;;;1.05;0.40;;;;;;;12.64;87.89;99631.88;4985398;28;20761;-63
2023/03/13 06:04:50;;;;;;;1.30;0.28;;;;;;;12.64;87.98;99626.69;4992102;28;20400;-63
2023/03/13 06:07:16;;;;;;;0.40;0.40;;;;;;;12.60;88.24;99640.63;4990462;28;20047;-64
2023/03/13 06:09:41;;;;;;;1.35;0.55;;;;;;;12.66;87.94;99628.31;4986867;28;20088;-64
2023/03/13 06:12:08;;;;;;;1.83;0.43;;;;;;;12.71;87.81;99641.09;4992951;28;20511;-63
2023/03/13 06:14:33;;;;;;;0.73;0.40;;;;;;;12.80;87.29;99639.03;4992035;28;20029;-63
2023/03/13 06:16:59;;;;;;;0.82;0.35;;;;;;;12.90;86.54;99631.78;4992803;28;20387;-63
2023/03/13 06:19:24;;;;;;;1.73;0.32;;;;;;;12.99;86.32;99603.81;4993964;28;20038;-63
2023/03/13 06:21:51;;;;;;;1.13;0.40;;;;;;;13.01;85.97;99606.31;4995122;28;20077;-64
2023/03/13 06:24:16;;;;;;;1.50;0.35;;;;;;;13.01;86.15;99601.13;4993793;28;20041;-64
2023/03/13 06:26:42;;;;;;;0.60;0.40;;;;;;;13.07;85.63;99587.09;4999233;28;20045;-64
2023/03/13 06:29:09;;;;;;;1.10;0.70;;;;;;;13.02;85.91;99602.00;5001387;28;20780;-63
2023/03/13 06:31:34;;;;;;;1.40;0.40;;;;;;;13.12;85.57;99631.91;5001732;28;20553;-64
2023/03/13 06:33:59;;;;;;;1.65;0.38;;;;;;;13.13;85.32;99649.13;4996606;28;20058;-64
2023/03/13 06:36:25;;;;;;;0.85;0.60;;;;;;;13.22;85.07;99636.69;4992484;28;20438;-64
2023/03/13 06:38:50;;;;;;;1.48;0.60;;;;;;;13.38;84.56;99640.41;4990839;28;20129;-64
2023/03/13 06:41:16;;;;;;;0.70;0.60;;;;;;;13.43;84.37;99642.81;4994057;28;20115;-64
2023/03/13 06:43:41;;;;;;;1.40;0.80;;;;;;;13.49;84.18;99653.81;4993177;28;20045;-64
2023/03/13 06:46:07;;;;;;;1.77;0.85;;;;;;;13.53;83.71;99652.78;4992771;28;20046;-64
2023/03/13 06:48:33;;;;;;;2.78;1.10;;;;;;;13.56;83.93;99657.84;4996564;28;20043;-63
2023/03/13 06:50:59;;;;;;;1.55;0.73;;;;;;;13.60;83.56;99662.94;4994583;28;20053;-64
2023/03/13 06:53:24;;;;;;;1.55;0.80;;;;;;;13.64;83.05;99662.78;4997337;28;20098;-64
2023/03/13 06:55:50;;;;;;;3.03;1.35;;;;;;;13.67;83.11;99669.59;4997469;28;20215;-64
2023/03/13 06:58:17;;;;;;;2.45;1.10;;;;;;;13.64;83.04;99674.91;4993376;28;20465;-64
2023/03/13 07:00:43;;;;;;;5.05;1.17;;;;;;;13.69;83.00;99675.56;4994967;28;20057;-64
2023/03/13 07:03:09;;;;;;;3.22;1.08;;;;;;;13.77;82.54;99673.53;4993359;28;20038;-64
2023/03/13 07:05:35;;;;;;;2.30;0.98;;;;;;;13.78;82.56;99670.03;4990483;28;20034;-64
2023/03/13 07:08:00;;;;;;;2.47;1.50;;;;;;;13.79;82.10;99657.00;5001917;28;20604;-63
2023/03/13 07:10:25;;;;;;;2.75;1.40;;;;;;;13.86;81.71;99674.00;4998792;28;20034;-63
2023/03/13 07:12:51;;;;;;;2.47;1.10;;;;;;;13.84;81.70;99672.38;4993310;28;20038;-63
2023/03/13 07:15:16;;;;;;;3.95;1.27;;;;;;;13.85;81.52;99674.09;5001473;28;20110;-62
2023/03/13 07:17:42;;;;;;;4.30;1.42;;;;;;;13.86;81.27;99673.19;4988411;28;20026;-63
2023/03/13 07:20:09;;;;;;;6.70;1.30;;;;;;;13.92;80.39;99670.34;4994909;28;20030;-65
2023/03/13 07:22:35;;;;;;;3.78;1.70;;;;;;;13.93;79.90;99672.03;4994970;28;20050;-64
2023/03/13 07:25:01;;;;;;;4.10;1.90;;;;;;;13.94;79.69;99665.94;4998729;28;20042;-64
2023/03/13 07:27:26;;;;;;;5.57;1.35;;;;;;;13.99;79.12;99674.38;5004835;28;21089;-64
2023/03/13 07:29:52;;;;;;;2.85;1.20;;;;;;;14.08;77.72;99667.06;4990103;28;20038;-64
2023/03/13 07:32:17;;;;;;;4.63;2.10;;;;;;;14.15;77.24;99665.06;5009681;28;20030;-64
2023/03/13 07:34:44;;;;;;;3.28;1.60;;;;;;;14.16;76.82;99661.56;4994978;28;20042;-64
2023/03/13 07:37:13;;;;;;;3.35;1.45;;;;;;;14.28;75.89;99661.06;4994425;28;20038;-64
2023/03/13 07:39:38;;;;;;;4.95;1.50;;;;;;;14.32;76.14;99680.81;4994666;28;20042;-64
2023/03/13 07:42:03;;;;;;;6.85;1.77;;;;;;;14.34;75.94;99668.59;4993827;28;20034;-63
2023/03/13 07:44:29;;;;;;;3.13;1.63;;;;;;;14.39;75.40;99666.72;4993867;28;20105;-64
2023/03/13 07:46:54;;;;;;;2.90;1.63;;;;;;;14.54;74.57;99655.66;4985556;28;20042;-64
2023/03/13 07:49:20;;;;;;;4.65;1.80;;;;;;;14.60;74.54;99639.78;4990179;28;20157;-64
2023/03/13 07:51:47;;;;;;;3.00;1.58;;;;;;;14.68;74.79;99636.03;5000423;28;20064;-64
2023/03/13 07:54:13;;;;;;;4.68;1.52;;;;;;;14.76;74.13;99626.97;4999376;28;20046;-64
2023/03/13 07:56:39;;;;;;;3.47;1.50;;;;;;;14.87;73.17;99603.94;4994328;28;20668;-64
2023/03/13 07:59:04;;;;;;;7.50;1.90;;;;;;;14.94;72.96;99610.56;4990680;28;20526;-64
2023/03/13 08:01:30;;;;;;;5.38;1.80;;;;;;;15.00;72.91;99606.84;4998783;28;20055;-63
2023/03/13 08:03:55;;;;;;;6.60;1.70;;;;;;;15.01;72.61;99611.13;4989067;28;20499;-63
2023/03/13 08:06:23;;;;;;;4.45;1.83;;;;;;;15.00;72.20;99599.03;4993823;28;20049;-64
2023/03/13 08:08:50;;;;;;;4.18;1.73;;;;;;;15.04;70.93;99596.25;4995740;28;20060;-64
2023/03/13 08:11:19;;;;;;;5.80;1.95;;;;;;;15.08;71.04;99591.72;4987970;28;20507;-64
2023/03/13 08:13:46;;;;;;;5.38;2.20;;;;;;;15.07;70.51;99584.84;5009198;28;20487;-64
2023/03/13 08:16:13;;;;;;;6.97;1.90;;;;;;;15.01;70.76;99591.16;4994672;28;20034;-65
2023/03/13 08:18:44;;;;;;;7.55;1.98;;;;;;;14.93;71.36;99587.22;4985918;28;20049;-64
2023/03/13 08:21:14;;;;;;;3.67;1.98;;;;;;;14.94;70.75;99591.50;4991640;28;20329;-64
2023/03/13 08:23:40;;;;;;;7.68;1.75;;;;;;;14.92;71.45;99593.34;4992741;28;20045;-64
2023/03/13 08:26:10;;;;;;;3.90;1.70;;;;;;;14.86;71.91;99598.81;4995514;28;20722;-64
2023/03/13 08:28:36;;;;;;;4.28;1.67;;;;;;;14.88;70.63;99583.97;4996002;28;20052;-63
2023/03/13 08:31:09;;;;;;;5.93;1.98;;;;;;;14.93;70.85;99584.63;5001866;28;20076;-64
2023/03/13 08:33:34;;;;;;;6.75;2.03;;;;;;;14.92;70.86;99593.34;4997296;28;20046;-64
2023/03/13 08:36:11;;;;;;;6.32;1.77;;;;;;;14.98;70.47;99578.28;4989713;28;20083;-64
2023/03/13 08:38:37;;;;;;;4.85;2.10;;;;;;;14.97;70.80;99584.41;4995035;28;20117;-64
2023/03/13 08:41:03;;;;;;;6.97;2.30;;;;;;;14.98;71.06;99588.72;4991905;28;21146;-64
2023/03/13 08:43:28;;;;;;;8.20;2.30;;;;;;;14.97;71.33;99586.16;4994397;28;20046;-64
2023/03/13 08:45:55;;;;;;;7.35;2.15;;;;;;;14.95;72.13;99596.66;4985964;28;20092;-64
2023/03/13 08:48:21;;;;;;;5.65;2.05;;;;;;;14.88;74.08;99610.84;5002027;28;20457;-65
2023/03/13 08:50:46;;;;;;;5.63;1.95;;;;;;;14.72;74.57;99617.63;4995585;28;20041;-63
2023/03/13 08:53:11;;;;;;;5.50;2.25;;;;;;;14.55;76.28;99612.28;4993753;28;20060;-64
2023/03/13 08:55:37;;;;;;;3.65;2.53;;;;;;;14.47;76.35;99615.22;4995866;28;20037;-64
2023/03/13 08:58:02;;;;;;;4.03;1.95;;;;;;;14.46;75.74;99608.34;5006485;28;20128;-64
2023/03/13 09:00:28;;;;;;;4.13;2.03;;;;;;;14.58;75.53;99599.16;5002460;28;20092;-64
2023/03/13 09:02:56;;;;;;;9.65;2.40;;;;;;;14.66;75.56;99591.91;4996380;28;20064;-64
2023/03/13 09:05:21;;;;;;;5.18;2.00;;;;;;;14.75;74.80;99588.03;4991648;28;20069;-64
2023/03/13 09:07:47;;;;;;;8.30;1.73;;;;;;;14.81;74.47;99590.38;4992061;28;20034;-64
2023/03/13 09:10:12;;;;;;;5.30;1.73;;;;;;;14.90;74.71;99601.19;4988533;28;20093;-64
2023/03/13 09:12:37;;;;;;;5.47;1.92;;;;;;;15.01;74.18;99592.94;4988461;28;20466;-64
2023/03/13 09:15:03;;;;;;;4.30;1.70;;;;;;;15.04;74.76;99596.25;5010131;28;20039;-64
2023/03/13 09:17:29;;;;;;;4.07;1.85;;;;;;;15.13;73.84;99588.03;4995734;28;20021;-66
2023/03/13 09:19:54;;;;;;;4.47;2.05;;;;;;;15.20;73.99;99586.81;4991858;28;20041;-64
2023/03/13 09:22:19;;;;;;;3.60;1.67;;;;;;;15.21;74.01;99587.66;4991693;28;20042;-64
2023/03/13 09:24:45;;;;;;;3.65;1.63;;;;;;;15.28;73.81;99586.47;4998197;28;20761;-62
2023/03/13 09:27:10;;;;;;;3.75;1.58;;;;;;;15.37;73.83;99599.06;5006254;28;20549;-62
2023/03/13 09:29:38;;;;;;;3.22;1.27;;;;;;;15.40;73.99;99593.72;4996366;28;20076;-62
2023/03/13 09:32:04;;;;;;;8.75;2.10;;;;;;;15.46;73.85;99589.97;5000829;28;20395;-62
2023/03/13 09:34:30;;;;;;;3.55;1.23;;;;;;;15.59;73.62;99578.03;4973732;28;20105;-62
2023/03/13 09:36:56;;;;;;;3.17;1.42;;;;;;;15.79;72.68;99569.31;4995386;28;20026;-62
2023/03/13 09:39:21;;;;;;;3.08;1.20;;;;;;;15.86;72.37;99566.34;4988976;28;20049;-62
2023/03/13 09:42:11;;;;;;;2.67;1.20;;;;;;;15.86;72.15;99560.28;5002155;28;20039;-62
2023/03/13 09:44:45;;;;;;;3.00;1.10;;;;;;;15.76;73.05;99565.94;4989699;28;20038;-62
2023/03/13 09:47:28;;;;;;;3.13;1.27;;;;;;;15.61;73.79;99574.44;4988620;28;20112;-64
2023/03/13 09:50:20;;;;;;;3.30;0.98;;;;;;;15.51;73.66;99569.75;4992898;28;20053;-64
2023/03/13 09:52:50;;;;;;;1.35;0.85;;;;;;;15.46;74.37;99582.16;4994176;28;20181;-62
2023/03/13 09:55:20;;;;;;;2.90;1.40;;;;;;;15.42;74.37;99578.84;5005038;28;20088;-62
2023/03/13 09:57:48;;;;;;;2.67;1.17;;;;;;;15.39;74.54;99576.38;5009555;28;20093;-63
2023/03/13 10:00:18;;;;;;;1.42;0.90;;;;;;;15.36;74.61;99573.09;5009006;28;20037;-63
2023/03/13 10:02:51;;;;;;;2.33;1.10;;;;;;;15.36;74.78;99588.69;4994334;28;20034;-63
2023/03/13 10:05:25;;;;;;;1.83;1.10;;;;;;;15.41;74.93;99574.56;4999743;28;20557;-62
2023/03/13 10:08:14;;;;;;;3.00;1.45;;;;;;;15.71;74.02;99557.50;4991280;28;20170;-62
2023/03/13 10:10:46;;;;;;;2.80;1.27;;;;;;;15.91;73.52;99551.31;4989001;28;20046;-63
2023/03/13 10:13:37;;;;;;;3.15;1.05;;;;;;;16.07;73.41;99536.59;4994649;28;20125;-62
2023/03/13 10:16:10;;;;;;;2.03;1.10;;;;;;;16.22;72.56;99528.00;4993723;28;20060;-62
2023/03/13 10:18:37;;;;;;;4.65;1.63;;;;;;;16.31;72.72;99529.31;5001652;28;20640;-63
2023/03/13 10:21:21;;;;;;;4.15;1.20;;;;;;;16.41;72.06;99520.09;5004552;28;20050;-63
2023/03/13 10:23:58;;;;;;;1.95;1.30;;;;;;;16.67;71.18;99513.50;4996251;28;20041;-63
2023/03/13 10:26:28;;;;;;;2.88;1.17;;;;;;;16.83;70.56;99503.94;4995810;28;20667;-63
2023/03/13 10:28:55;;;;;;;2.05;1.10;;;;;;;16.93;70.68;99501.69;5001420;28;20582;-64
2023/03/13 10:31:47;;;;;;;3.03;1.30;;;;;;;16.83;70.28;99512.63;5000225;28;20456;-64
2023/03/13 10:34:13;;;;;;;3.15;1.58;;;;;;;16.73;70.56;99515.78;4992973;28;20866;-63
2023/03/13 10:36:47;;;;;;;4.07;1.10;;;;;;;16.57;70.77;99512.28;4991323;28;20689;-65
2023/03/13 10:39:26;;;;;;;3.53;1.40;;;;;;;16.42;71.39;99520.91;4990602;28;20046;-64
2023/03/13 10:41:58;;;;;;;3.55;1.50;;;;;;;16.28;72.10;99519.88;4989516;28;20026;-64
2023/03/13 10:44:31;;;;;;;2.45;1.23;;;;;;;16.21;72.29;99531.53;4995222;28;20030;-63
2023/03/13 10:47:01;;;;;;;2.97;1.30;;;;;;;16.26;71.85;99505.25;4991110;28;20034;-64
2023/03/13 10:49:27;;;;;;;1.77;1.35;;;;;;;16.34;72.24;99505.66;4988245;28;20089;-63
2023/03/13 10:51:54;;;;;;;1.77;1.30;;;;;;;16.39;72.10;99506.28;4996084;28;20518;-63
2023/03/13 10:54:35;;;;;;;2.75;1.10;;;;;;;16.49;71.06;99489.22;4996854;28;20433;-65
2023/03/13 10:57:27;;;;;;;1.45;1.00;;;;;;;16.66;70.01;99481.34;4999071;28;20037;-63
2023/03/13 10:59:53;;;;;;;1.92;1.00;;;;;;;16.73;70.14;99468.81;4992117;28;20021;-63
2023/03/13 11:02:38;;;;;;;2.95;0.68;;;;;;;16.83;69.06;99460.44;4993170;28;20053;-64
2023/03/13 11:05:41;;;;;;;0.65;0.60;;;;;;;17.07;67.84;99437.34;4990065;28;20103;-64
2023/03/13 11:08:18;;;;;;;1.25;0.70;;;;;;;17.36;67.56;99428.69;5004000;28;20080;-63
2023/03/13 11:10:51;;;;;;;2.75;0.80;;;;;;;17.58;66.53;99414.41;4998404;28;20774;-63
2023/03/13 11:13:28;;;;;;;2.47;0.73;;;;;;;17.82;65.59;99395.53;4988621;28;20042;-65
2023/03/13 11:15:59;;;;;;;2.40;0.77;;;;;;;18.07;65.72;99381.84;4995303;28;20133;-61
2023/03/13 11:18:37;;;;;;;0.50;0.50;;;;;;;18.04;64.87;99373.34;4987382;28;20046;-62
2023/03/13 11:21:04;;;;;;;0.82;0.43;;;;;;;18.00;64.57;99358.78;4996665;28;20060;-61
2023/03/13 11:23:45;;;;;;;1.73;0.50;;;;;;;18.20;64.23;99351.38;5003176;28;20632;-61
2023/03/13 11:26:55;;;;;;;0.77;0.40;;;;;;;18.21;62.91;99303.38;4994823;28;20046;-61
2023/03/13 11:29:21;;;;;;;0.75;0.30;;;;;;;18.38;63.63;99331.09;4997226;28;20059;-61
2023/03/13 11:31:54;;;;;;;0.52;0.40;;;;;;;18.69;62.80;99307.28;4991311;28;20539;-61
2023/03/13 11:34:47;;;;;;;1.30;0.57;;;;;;;18.84;62.40;99288.00;4985770;28;20554;-61
2023/03/13 11:37:15;;;;;;;2.08;0.40;;;;;;;18.64;62.50;99293.63;4991659;28;20033;-61